sensor_id;sensor_type;location;lat;lon;timestamp;P1;durP1;ratioP1;P2;durP2;ratioP2
23988;SDS011;12202;52.136;5.592;2023-04-15T00:00:44;41.20;;;14.88;;
23988;SDS011;12202;52.136;5.592;2023-04-15T00:03:10;31.88;;;16.17;;
23988;SDS011;12202;52.136;5.592;2023-04-15T00:05:36;31.00;;;14.85;;
23988;SDS011;12202;52.136;5.592;2023-04-15T00:08:02;34.72;;;16.13;;
23988;SDS011;12202;52.136;5.592;2023-04-15T00:10:28;30.35;;;15.02;;
23988;SDS011;12202;52.136;5.592;2023-04-15T00:12:54;29.83;;;14.77;;
23988;SDS011;12202;52.136;5.592;2023-04-15T00:15:20;23.67;;;14.50;;
23988;SDS011;12202;52.136;5.592;2023-04-15T00:17:48;30.67;;;15.00;;
23988;SDS011;12202;52.136;5.592;2023-04-15T00:20:15;30.00;;;15.50;;
23988;SDS011;12202;52.136;5.592;2023-04-15T00:22:41;30.92;;;15.80;;
23988;SDS011;12202;52.136;5.592;2023-04-15T00:25:07;31.77;;;14.90;;
23988;SDS011;12202;52.136;5.592;2023-04-15T00:27:33;25.60;;;14.73;;
23988;SDS011;12202;52.136;5.592;2023-04-15T00:29:59;36.22;;;15.95;;
23988;SDS011;12202;52.136;5.592;2023-04-15T00:32:26;26.48;;;15.13;;
23988;SDS011;12202;52.136;5.592;2023-04-15T00:34:52;30.52;;;15.43;;
23988;SDS011;12202;52.136;5.592;2023-04-15T00:37:18;32.40;;;14.70;;
23988;SDS011;12202;52.136;5.592;2023-04-15T00:39:44;30.35;;;14.55;;
23988;SDS011;12202;52.136;5.592;2023-04-15T00:42:10;30.20;;;15.55;;
23988;SDS011;12202;52.136;5.592;2023-04-15T00:44:35;27.35;;;15.93;;
23988;SDS011;12202;52.136;5.592;2023-04-15T00:47:01;25.38;;;15.55;;
23988;SDS011;12202;52.136;5.592;2023-04-15T00:49:28;35.92;;;16.30;;
23988;SDS011;12202;52.136;5.592;2023-04-15T00:51:56;28.45;;;15.68;;
23988;SDS011;12202;52.136;5.592;2023-04-15T00:54:22;31.15;;;15.40;;
23988;SDS011;12202;52.136;5.592;2023-04-15T00:56:48;30.08;;;15.35;;
23988;SDS011;12202;52.136;5.592;2023-04-15T00:59:14;35.20;;;16.83;;
23988;SDS011;12202;52.136;5.592;2023-04-15T01:01:40;36.15;;;17.70;;
23988;SDS011;12202;52.136;5.592;2023-04-15T01:04:07;25.25;;;15.93;;
23988;SDS011;12202;52.136;5.592;2023-04-15T01:06:34;32.08;;;15.90;;
23988;SDS011;12202;52.136;5.592;2023-04-15T01:09:01;30.83;;;15.85;;
23988;SDS011;12202;52.136;5.592;2023-04-15T01:11:27;26.55;;;15.40;;
23988;SDS011;12202;52.136;5.592;2023-04-15T01:13:55;29.65;;;15.10;;
23988;SDS011;12202;52.136;5.592;2023-04-15T01:16:21;27.83;;;15.35;;
23988;SDS011;12202;52.136;5.592;2023-04-15T01:18:47;22.92;;;14.73;;
23988;SDS011;12202;52.136;5.592;2023-04-15T01:21:13;28.10;;;15.35;;
23988;SDS011;12202;52.136;5.592;2023-04-15T01:23:39;31.95;;;15.90;;
23988;SDS011;12202;52.136;5.592;2023-04-15T01:26:05;30.08;;;15.15;;
23988;SDS011;12202;52.136;5.592;2023-04-15T01:28:33;26.02;;;15.18;;
23988;SDS011;12202;52.136;5.592;2023-04-15T01:33:31;31.20;;;14.80;;
23988;SDS011;12202;52.136;5.592;2023-04-15T01:35:57;35.10;;;15.68;;
23988;SDS011;12202;52.136;5.592;2023-04-15T01:38:25;25.98;;;15.90;;
23988;SDS011;12202;52.136;5.592;2023-04-15T01:40:52;30.88;;;15.40;;
23988;SDS011;12202;52.136;5.592;2023-04-15T01:43:18;35.45;;;15.27;;
23988;SDS011;12202;52.136;5.592;2023-04-15T01:45:44;32.97;;;15.15;;
23988;SDS011;12202;52.136;5.592;2023-04-15T01:48:10;25.17;;;14.25;;
23988;SDS011;12202;52.136;5.592;2023-04-15T01:50:37;34.75;;;14.63;;
23988;SDS011;12202;52.136;5.592;2023-04-15T01:53:03;35.25;;;15.30;;
23988;SDS011;12202;52.136;5.592;2023-04-15T01:55:29;25.45;;;13.73;;
23988;SDS011;12202;52.136;5.592;2023-04-15T01:57:55;29.13;;;14.48;;
23988;SDS011;12202;52.136;5.592;2023-04-15T02:00:22;30.83;;;14.00;;
23988;SDS011;12202;52.136;5.592;2023-04-15T02:02:48;24.48;;;13.85;;
23988;SDS011;12202;52.136;5.592;2023-04-15T02:05:15;28.67;;;14.68;;
23988;SDS011;12202;52.136;5.592;2023-04-15T02:07:41;28.08;;;14.52;;
23988;SDS011;12202;52.136;5.592;2023-04-15T02:10:07;25.55;;;14.80;;
23988;SDS011;12202;52.136;5.592;2023-04-15T02:12:34;30.75;;;14.55;;
23988;SDS011;12202;52.136;5.592;2023-04-15T02:15:00;24.17;;;13.98;;
23988;SDS011;12202;52.136;5.592;2023-04-15T02:17:26;28.45;;;14.70;;
23988;SDS011;12202;52.136;5.592;2023-04-15T02:19:52;28.48;;;14.80;;
23988;SDS011;12202;52.136;5.592;2023-04-15T02:22:20;26.15;;;13.68;;
23988;SDS011;12202;52.136;5.592;2023-04-15T02:24:46;28.67;;;13.95;;
23988;SDS011;12202;52.136;5.592;2023-04-15T02:27:16;33.65;;;12.75;;
23988;SDS011;12202;52.136;5.592;2023-04-15T02:29:42;25.00;;;13.27;;
23988;SDS011;12202;52.136;5.592;2023-04-15T02:32:09;22.35;;;12.50;;
23988;SDS011;12202;52.136;5.592;2023-04-15T02:34:35;24.45;;;13.70;;
23988;SDS011;12202;52.136;5.592;2023-04-15T02:37:05;28.60;;;13.73;;
23988;SDS011;12202;52.136;5.592;2023-04-15T02:39:31;26.73;;;13.60;;
23988;SDS011;12202;52.136;5.592;2023-04-15T02:41:57;20.77;;;12.85;;
23988;SDS011;12202;52.136;5.592;2023-04-15T02:44:24;24.67;;;14.07;;
23988;SDS011;12202;52.136;5.592;2023-04-15T02:46:51;31.10;;;14.15;;
23988;SDS011;12202;52.136;5.592;2023-04-15T02:49:18;26.42;;;13.57;;
23988;SDS011;12202;52.136;5.592;2023-04-15T02:51:45;30.40;;;15.25;;
23988;SDS011;12202;52.136;5.592;2023-04-15T02:54:14;27.55;;;13.00;;
23988;SDS011;12202;52.136;5.592;2023-04-15T02:56:40;26.67;;;14.23;;
23988;SDS011;12202;52.136;5.592;2023-04-15T02:59:06;32.45;;;15.30;;
23988;SDS011;12202;52.136;5.592;2023-04-15T03:01:32;25.77;;;13.43;;
23988;SDS011;12202;52.136;5.592;2023-04-15T03:03:58;23.48;;;13.35;;
23988;SDS011;12202;52.136;5.592;2023-04-15T03:06:24;26.55;;;13.85;;
23988;SDS011;12202;52.136;5.592;2023-04-15T03:08:50;28.20;;;14.15;;
23988;SDS011;12202;52.136;5.592;2023-04-15T03:11:16;28.95;;;14.13;;
23988;SDS011;12202;52.136;5.592;2023-04-15T03:13:42;25.73;;;13.57;;
23988;SDS011;12202;52.136;5.592;2023-04-15T03:16:08;26.08;;;13.30;;
23988;SDS011;12202;52.136;5.592;2023-04-15T03:18:35;29.67;;;13.95;;
23988;SDS011;12202;52.136;5.592;2023-04-15T03:21:01;25.02;;;14.02;;
23988;SDS011;12202;52.136;5.592;2023-04-15T03:23:27;21.50;;;13.15;;
23988;SDS011;12202;52.136;5.592;2023-04-15T03:25:54;25.52;;;14.30;;
23988;SDS011;12202;52.136;5.592;2023-04-15T03:28:21;23.42;;;13.70;;
23988;SDS011;12202;52.136;5.592;2023-04-15T03:30:47;26.77;;;13.25;;
23988;SDS011;12202;52.136;5.592;2023-04-15T03:33:13;23.55;;;13.38;;
23988;SDS011;12202;52.136;5.592;2023-04-15T03:35:40;41.33;;;16.27;;
23988;SDS011;12202;52.136;5.592;2023-04-15T03:38:06;32.80;;;13.95;;
23988;SDS011;12202;52.136;5.592;2023-04-15T03:40:32;27.23;;;14.35;;
23988;SDS011;12202;52.136;5.592;2023-04-15T03:42:58;32.15;;;14.50;;
23988;SDS011;12202;52.136;5.592;2023-04-15T03:45:24;31.85;;;14.25;;
23988;SDS011;12202;52.136;5.592;2023-04-15T03:47:50;24.83;;;14.30;;
23988;SDS011;12202;52.136;5.592;2023-04-15T03:50:16;25.88;;;14.15;;
23988;SDS011;12202;52.136;5.592;2023-04-15T03:52:43;30.33;;;14.88;;
23988;SDS011;12202;52.136;5.592;2023-04-15T03:55:09;32.75;;;14.80;;
23988;SDS011;12202;52.136;5.592;2023-04-15T03:57:35;31.70;;;15.05;;
23988;SDS011;12202;52.136;5.592;2023-04-15T04:00:03;31.42;;;14.43;;
23988;SDS011;12202;52.136;5.592;2023-04-15T04:02:29;28.08;;;15.90;;
23988;SDS011;12202;52.136;5.592;2023-04-15T04:04:55;26.80;;;15.73;;
23988;SDS011;12202;52.136;5.592;2023-04-15T04:07:22;28.85;;;15.27;;
23988;SDS011;12202;52.136;5.592;2023-04-15T04:09:48;26.75;;;15.68;;
23988;SDS011;12202;52.136;5.592;2023-04-15T04:12:14;34.53;;;15.43;;
23988;SDS011;12202;52.136;5.592;2023-04-15T04:14:40;34.03;;;16.35;;
23988;SDS011;12202;52.136;5.592;2023-04-15T04:17:06;30.00;;;15.77;;
23988;SDS011;12202;52.136;5.592;2023-04-15T04:19:32;28.10;;;15.60;;
23988;SDS011;12202;52.136;5.592;2023-04-15T04:21:58;29.83;;;16.35;;
23988;SDS011;12202;52.136;5.592;2023-04-15T04:24:24;31.05;;;15.65;;
23988;SDS011;12202;52.136;5.592;2023-04-15T04:26:50;34.30;;;16.92;;
23988;SDS011;12202;52.136;5.592;2023-04-15T04:29:16;34.10;;;17.10;;
23988;SDS011;12202;52.136;5.592;2023-04-15T04:31:42;36.75;;;17.88;;
23988;SDS011;12202;52.136;5.592;2023-04-15T04:34:08;30.83;;;15.93;;
23988;SDS011;12202;52.136;5.592;2023-04-15T04:36:35;32.58;;;15.13;;
23988;SDS011;12202;52.136;5.592;2023-04-15T04:39:01;30.80;;;16.77;;
23988;SDS011;12202;52.136;5.592;2023-04-15T04:41:27;29.98;;;15.38;;
23988;SDS011;12202;52.136;5.592;2023-04-15T04:43:53;28.63;;;15.43;;
23988;SDS011;12202;52.136;5.592;2023-04-15T04:46:19;32.33;;;15.55;;
23988;SDS011;12202;52.136;5.592;2023-04-15T04:48:45;39.58;;;15.57;;
23988;SDS011;12202;52.136;5.592;2023-04-15T04:51:11;42.40;;;17.33;;
23988;SDS011;12202;52.136;5.592;2023-04-15T04:53:37;40.22;;;19.20;;
23988;SDS011;12202;52.136;5.592;2023-04-15T04:56:03;34.83;;;17.30;;
23988;SDS011;12202;52.136;5.592;2023-04-15T04:58:30;32.97;;;16.90;;
23988;SDS011;12202;52.136;5.592;2023-04-15T05:00:56;29.30;;;16.05;;
23988;SDS011;12202;52.136;5.592;2023-04-15T05:03:22;27.05;;;15.32;;
23988;SDS011;12202;52.136;5.592;2023-04-15T05:05:48;31.10;;;17.20;;
23988;SDS011;12202;52.136;5.592;2023-04-15T05:08:15;35.03;;;17.33;;
23988;SDS011;12202;52.136;5.592;2023-04-15T05:10:41;35.55;;;16.90;;
23988;SDS011;12202;52.136;5.592;2023-04-15T05:13:07;34.90;;;16.95;;
23988;SDS011;12202;52.136;5.592;2023-04-15T05:15:32;30.45;;;15.57;;
23988;SDS011;12202;52.136;5.592;2023-04-15T05:18:00;31.15;;;16.45;;
23988;SDS011;12202;52.136;5.592;2023-04-15T05:20:26;32.35;;;16.60;;
23988;SDS011;12202;52.136;5.592;2023-04-15T05:22:52;28.00;;;16.52;;
23988;SDS011;12202;52.136;5.592;2023-04-15T05:25:18;34.97;;;17.55;;
23988;SDS011;12202;52.136;5.592;2023-04-15T05:27:46;32.95;;;17.02;;
23988;SDS011;12202;52.136;5.592;2023-04-15T05:30:12;35.40;;;17.95;;
23988;SDS011;12202;52.136;5.592;2023-04-15T05:32:38;36.70;;;18.70;;
23988;SDS011;12202;52.136;5.592;2023-04-15T05:35:04;32.08;;;17.90;;
23988;SDS011;12202;52.136;5.592;2023-04-15T05:37:30;32.60;;;16.70;;
23988;SDS011;12202;52.136;5.592;2023-04-15T05:39:56;31.27;;;17.27;;
23988;SDS011;12202;52.136;5.592;2023-04-15T05:42:22;38.17;;;19.65;;
23988;SDS011;12202;52.136;5.592;2023-04-15T05:44:48;34.38;;;16.95;;
23988;SDS011;12202;52.136;5.592;2023-04-15T05:47:15;34.90;;;18.30;;
23988;SDS011;12202;52.136;5.592;2023-04-15T05:49:41;34.50;;;18.45;;
23988;SDS011;12202;52.136;5.592;2023-04-15T05:52:06;34.20;;;18.20;;
23988;SDS011;12202;52.136;5.592;2023-04-15T05:54:32;32.22;;;17.85;;
23988;SDS011;12202;52.136;5.592;2023-04-15T05:56:58;40.30;;;19.50;;
23988;SDS011;12202;52.136;5.592;2023-04-15T05:59:24;53.13;;;25.48;;
23988;SDS011;12202;52.136;5.592;2023-04-15T06:01:52;40.30;;;21.27;;
23988;SDS011;12202;52.136;5.592;2023-04-15T06:04:18;33.72;;;19.08;;
23988;SDS011;12202;52.136;5.592;2023-04-15T06:06:44;41.55;;;20.42;;
23988;SDS011;12202;52.136;5.592;2023-04-15T06:09:10;45.03;;;21.20;;
23988;SDS011;12202;52.136;5.592;2023-04-15T06:11:36;36.60;;;19.80;;
23988;SDS011;12202;52.136;5.592;2023-04-15T06:14:02;37.15;;;20.10;;
23988;SDS011;12202;52.136;5.592;2023-04-15T06:16:28;41.38;;;19.42;;
23988;SDS011;12202;52.136;5.592;2023-04-15T06:18:54;36.80;;;19.73;;
23988;SDS011;12202;52.136;5.592;2023-04-15T06:21:20;46.13;;;22.27;;
23988;SDS011;12202;52.136;5.592;2023-04-15T06:23:46;35.45;;;20.55;;
23988;SDS011;12202;52.136;5.592;2023-04-15T06:26:12;43.42;;;20.08;;
23988;SDS011;12202;52.136;5.592;2023-04-15T06:28:38;37.90;;;20.77;;
23988;SDS011;12202;52.136;5.592;2023-04-15T06:31:04;43.10;;;20.40;;
23988;SDS011;12202;52.136;5.592;2023-04-15T06:33:30;39.40;;;21.73;;
23988;SDS011;12202;52.136;5.592;2023-04-15T06:35:56;41.97;;;20.58;;
23988;SDS011;12202;52.136;5.592;2023-04-15T06:38:22;35.40;;;19.75;;
23988;SDS011;12202;52.136;5.592;2023-04-15T06:40:48;36.80;;;19.77;;
23988;SDS011;12202;52.136;5.592;2023-04-15T06:43:14;39.97;;;20.83;;
23988;SDS011;12202;52.136;5.592;2023-04-15T06:45:40;35.67;;;20.35;;
23988;SDS011;12202;52.136;5.592;2023-04-15T06:48:06;40.03;;;19.70;;
23988;SDS011;12202;52.136;5.592;2023-04-15T06:50:32;42.45;;;22.13;;
23988;SDS011;12202;52.136;5.592;2023-04-15T06:52:59;40.70;;;21.40;;
23988;SDS011;12202;52.136;5.592;2023-04-15T06:55:26;56.50;;;23.40;;
23988;SDS011;12202;52.136;5.592;2023-04-15T06:57:52;42.30;;;20.80;;
23988;SDS011;12202;52.136;5.592;2023-04-15T07:00:18;35.03;;;19.50;;
23988;SDS011;12202;52.136;5.592;2023-04-15T07:02:44;36.63;;;19.58;;
23988;SDS011;12202;52.136;5.592;2023-04-15T07:05:10;31.52;;;17.85;;
23988;SDS011;12202;52.136;5.592;2023-04-15T07:07:36;35.08;;;18.60;;
23988;SDS011;12202;52.136;5.592;2023-04-15T07:10:02;33.30;;;19.65;;
23988;SDS011;12202;52.136;5.592;2023-04-15T07:12:29;35.15;;;19.73;;
23988;SDS011;12202;52.136;5.592;2023-04-15T07:14:55;38.35;;;20.33;;
23988;SDS011;12202;52.136;5.592;2023-04-15T07:17:21;39.40;;;19.88;;
23988;SDS011;12202;52.136;5.592;2023-04-15T07:19:47;39.30;;;20.17;;
23988;SDS011;12202;52.136;5.592;2023-04-15T07:22:13;39.17;;;18.73;;
23988;SDS011;12202;52.136;5.592;2023-04-15T07:24:39;32.75;;;17.80;;
23988;SDS011;12202;52.136;5.592;2023-04-15T07:27:05;36.13;;;19.00;;
23988;SDS011;12202;52.136;5.592;2023-04-15T07:29:31;31.52;;;16.55;;
23988;SDS011;12202;52.136;5.592;2023-04-15T07:31:57;28.27;;;15.27;;
23988;SDS011;12202;52.136;5.592;2023-04-15T07:34:23;31.08;;;15.60;;
23988;SDS011;12202;52.136;5.592;2023-04-15T07:36:49;33.33;;;13.88;;
23988;SDS011;12202;52.136;5.592;2023-04-15T07:39:19;20.98;;;12.68;;
23988;SDS011;12202;52.136;5.592;2023-04-15T07:41:45;21.33;;;11.32;;
23988;SDS011;12202;52.136;5.592;2023-04-15T07:44:11;20.23;;;10.95;;
23988;SDS011;12202;52.136;5.592;2023-04-15T07:46:37;21.77;;;11.38;;
23988;SDS011;12202;52.136;5.592;2023-04-15T07:49:03;19.45;;;11.50;;
23988;SDS011;12202;52.136;5.592;2023-04-15T07:51:29;22.55;;;12.25;;
23988;SDS011;12202;52.136;5.592;2023-04-15T07:53:56;23.75;;;12.18;;
23988;SDS011;12202;52.136;5.592;2023-04-15T07:56:22;27.10;;;13.40;;
23988;SDS011;12202;52.136;5.592;2023-04-15T07:58:48;22.13;;;12.27;;
23988;SDS011;12202;52.136;5.592;2023-04-15T08:01:14;25.05;;;13.35;;
23988;SDS011;12202;52.136;5.592;2023-04-15T08:03:41;28.90;;;12.77;;
23988;SDS011;12202;52.136;5.592;2023-04-15T08:06:07;21.00;;;11.85;;
23988;SDS011;12202;52.136;5.592;2023-04-15T08:08:33;21.85;;;12.35;;
23988;SDS011;12202;52.136;5.592;2023-04-15T08:10:59;22.55;;;12.50;;
23988;SDS011;12202;52.136;5.592;2023-04-15T08:13:25;20.67;;;11.25;;
23988;SDS011;12202;52.136;5.592;2023-04-15T08:18:36;21.38;;;11.05;;
23988;SDS011;12202;52.136;5.592;2023-04-15T08:21:02;22.20;;;11.30;;
23988;SDS011;12202;52.136;5.592;2023-04-15T08:23:29;20.15;;;11.00;;
23988;SDS011;12202;52.136;5.592;2023-04-15T08:25:55;19.13;;;9.98;;
23988;SDS011;12202;52.136;5.592;2023-04-15T08:28:21;14.80;;;9.65;;
23988;SDS011;12202;52.136;5.592;2023-04-15T08:30:47;19.70;;;10.27;;
23988;SDS011;12202;52.136;5.592;2023-04-15T08:33:13;16.65;;;9.90;;
23988;SDS011;12202;52.136;5.592;2023-04-15T08:35:39;13.40;;;8.68;;
23988;SDS011;12202;52.136;5.592;2023-04-15T08:38:06;17.02;;;8.27;;
23988;SDS011;12202;52.136;5.592;2023-04-15T08:40:34;16.75;;;8.88;;
23988;SDS011;12202;52.136;5.592;2023-04-15T08:43:02;12.88;;;9.00;;
23988;SDS011;12202;52.136;5.592;2023-04-15T08:45:29;15.07;;;8.48;;
23988;SDS011;12202;52.136;5.592;2023-04-15T08:47:56;14.95;;;7.53;;
23988;SDS011;12202;52.136;5.592;2023-04-15T08:50:22;13.90;;;7.93;;
23988;SDS011;12202;52.136;5.592;2023-04-15T08:52:53;12.10;;;7.68;;
23988;SDS011;12202;52.136;5.592;2023-04-15T08:55:19;15.82;;;8.02;;
23988;SDS011;12202;52.136;5.592;2023-04-15T08:57:46;10.27;;;7.35;;
23988;SDS011;12202;52.136;5.592;2023-04-15T09:00:12;11.48;;;7.00;;
23988;SDS011;12202;52.136;5.592;2023-04-15T09:02:38;15.63;;;6.88;;
23988;SDS011;12202;52.136;5.592;2023-04-15T09:05:05;12.48;;;7.18;;
23988;SDS011;12202;52.136;5.592;2023-04-15T09:07:34;9.35;;;6.43;;
23988;SDS011;12202;52.136;5.592;2023-04-15T09:10:01;13.15;;;6.97;;
23988;SDS011;12202;52.136;5.592;2023-04-15T09:12:27;11.05;;;6.93;;
23988;SDS011;12202;52.136;5.592;2023-04-15T09:14:53;10.13;;;6.22;;
23988;SDS011;12202;52.136;5.592;2023-04-15T09:17:19;10.13;;;5.85;;
23988;SDS011;12202;52.136;5.592;2023-04-15T09:19:45;10.60;;;6.50;;
23988;SDS011;12202;52.136;5.592;2023-04-15T09:22:11;10.05;;;6.40;;
23988;SDS011;12202;52.136;5.592;2023-04-15T09:24:38;11.07;;;6.97;;
23988;SDS011;12202;52.136;5.592;2023-04-15T09:27:06;9.90;;;6.70;;
23988;SDS011;12202;52.136;5.592;2023-04-15T09:29:32;10.07;;;5.95;;
23988;SDS011;12202;52.136;5.592;2023-04-15T09:32:08;7.38;;;5.10;;
23988;SDS011;12202;52.136;5.592;2023-04-15T09:34:35;7.28;;;4.60;;
23988;SDS011;12202;52.136;5.592;2023-04-15T09:37:01;9.27;;;4.60;;
23988;SDS011;12202;52.136;5.592;2023-04-15T09:39:43;8.00;;;4.80;;
23988;SDS011;12202;52.136;5.592;2023-04-15T09:42:11;7.95;;;4.95;;
23988;SDS011;12202;52.136;5.592;2023-04-15T09:44:37;5.88;;;3.97;;
23988;SDS011;12202;52.136;5.592;2023-04-15T09:47:02;5.97;;;4.20;;
23988;SDS011;12202;52.136;5.592;2023-04-15T09:49:28;9.63;;;3.75;;
23988;SDS011;12202;52.136;5.592;2023-04-15T09:52:01;6.15;;;3.92;;
23988;SDS011;12202;52.136;5.592;2023-04-15T09:54:36;5.88;;;3.42;;
23988;SDS011;12202;52.136;5.592;2023-04-15T09:57:07;6.75;;;4.03;;
23988;SDS011;12202;52.136;5.592;2023-04-15T09:59:34;6.97;;;4.30;;
23988;SDS011;12202;52.136;5.592;2023-04-15T10:02:00;9.02;;;3.97;;
23988;SDS011;12202;52.136;5.592;2023-04-15T10:04:29;6.50;;;3.75;;
23988;SDS011;12202;52.136;5.592;2023-04-15T10:06:55;7.30;;;4.47;;
23988;SDS011;12202;52.136;5.592;2023-04-15T10:09:21;8.57;;;4.60;;
23988;SDS011;12202;52.136;5.592;2023-04-15T10:11:47;5.93;;;4.05;;
23988;SDS011;12202;52.136;5.592;2023-04-15T10:14:14;8.88;;;4.75;;
23988;SDS011;12202;52.136;5.592;2023-04-15T10:16:41;12.98;;;5.28;;
23988;SDS011;12202;52.136;5.592;2023-04-15T10:19:09;12.63;;;5.43;;
23988;SDS011;12202;52.136;5.592;2023-04-15T10:21:36;8.75;;;5.68;;
23988;SDS011;12202;52.136;5.592;2023-04-15T10:24:02;9.43;;;5.28;;
23988;SDS011;12202;52.136;5.592;2023-04-15T10:26:28;11.05;;;5.95;;
23988;SDS011;12202;52.136;5.592;2023-04-15T10:28:55;10.32;;;6.18;;
23988;SDS011;12202;52.136;5.592;2023-04-15T10:31:21;10.63;;;5.10;;
23988;SDS011;12202;52.136;5.592;2023-04-15T10:33:47;6.93;;;5.05;;
23988;SDS011;12202;52.136;5.592;2023-04-15T10:36:14;9.55;;;5.20;;
23988;SDS011;12202;52.136;5.592;2023-04-15T10:38:41;10.77;;;5.15;;
23988;SDS011;12202;52.136;5.592;2023-04-15T10:43:37;11.07;;;6.05;;
23988;SDS011;12202;52.136;5.592;2023-04-15T10:46:05;12.70;;;5.65;;
23988;SDS011;12202;52.136;5.592;2023-04-15T10:48:31;9.52;;;5.63;;
23988;SDS011;12202;52.136;5.592;2023-04-15T10:50:59;10.98;;;5.65;;
23988;SDS011;12202;52.136;5.592;2023-04-15T10:53:29;8.20;;;5.60;;
23988;SDS011;12202;52.136;5.592;2023-04-15T10:55:56;8.13;;;5.22;;
23988;SDS011;12202;52.136;5.592;2023-04-15T10:58:23;6.63;;;5.00;;
23988;SDS011;12202;52.136;5.592;2023-04-15T11:00:52;7.80;;;4.93;;
23988;SDS011;12202;52.136;5.592;2023-04-15T11:03:37;9.15;;;5.10;;
23988;SDS011;12202;52.136;5.592;2023-04-15T11:06:04;10.02;;;4.47;;
23988;SDS011;12202;52.136;5.592;2023-04-15T11:08:51;10.43;;;4.00;;
23988;SDS011;12202;52.136;5.592;2023-04-15T11:11:16;8.25;;;4.35;;
23988;SDS011;12202;52.136;5.592;2023-04-15T11:13:49;7.10;;;4.45;;
23988;SDS011;12202;52.136;5.592;2023-04-15T11:16:16;10.05;;;5.47;;
23988;SDS011;12202;52.136;5.592;2023-04-15T11:18:42;10.65;;;4.97;;
23988;SDS011;12202;52.136;5.592;2023-04-15T11:21:17;10.75;;;5.53;;
23988;SDS011;12202;52.136;5.592;2023-04-15T11:23:44;8.88;;;4.47;;
23988;SDS011;12202;52.136;5.592;2023-04-15T11:26:13;10.40;;;4.25;;
23988;SDS011;12202;52.136;5.592;2023-04-15T11:28:41;11.07;;;4.32;;
23988;SDS011;12202;52.136;5.592;2023-04-15T11:31:08;7.47;;;4.15;;
23988;SDS011;12202;52.136;5.592;2023-04-15T11:33:35;7.70;;;4.25;;
23988;SDS011;12202;52.136;5.592;2023-04-15T11:36:01;9.02;;;4.32;;
23988;SDS011;12202;52.136;5.592;2023-04-15T11:38:28;6.72;;;4.45;;
23988;SDS011;12202;52.136;5.592;2023-04-15T11:40:55;6.88;;;4.30;;
23988;SDS011;12202;52.136;5.592;2023-04-15T11:43:21;12.15;;;4.90;;
23988;SDS011;12202;52.136;5.592;2023-04-15T11:45:49;8.00;;;4.30;;
23988;SDS011;12202;52.136;5.592;2023-04-15T11:48:17;8.70;;;4.72;;
23988;SDS011;12202;52.136;5.592;2023-04-15T11:50:43;9.95;;;4.63;;
23988;SDS011;12202;52.136;5.592;2023-04-15T11:53:09;10.95;;;4.47;;
23988;SDS011;12202;52.136;5.592;2023-04-15T11:58:12;7.50;;;4.97;;
23988;SDS011;12202;52.136;5.592;2023-04-15T12:00:39;13.57;;;6.43;;
23988;SDS011;12202;52.136;5.592;2023-04-15T12:13:52;5.55;;;3.47;;
23988;SDS011;12202;52.136;5.592;2023-04-15T12:16:19;5.72;;;3.50;;
23988;SDS011;12202;52.136;5.592;2023-04-15T12:18:45;4.75;;;3.40;;
23988;SDS011;12202;52.136;5.592;2023-04-15T12:21:12;6.22;;;2.92;;
23988;SDS011;12202;52.136;5.592;2023-04-15T12:23:46;4.63;;;2.65;;
23988;SDS011;12202;52.136;5.592;2023-04-15T12:26:13;6.72;;;3.08;;
23988;SDS011;12202;52.136;5.592;2023-04-15T12:28:40;5.63;;;2.72;;
23988;SDS011;12202;52.136;5.592;2023-04-15T12:31:09;3.65;;;2.65;;
23988;SDS011;12202;52.136;5.592;2023-04-15T12:33:36;4.93;;;2.42;;
23988;SDS011;12202;52.136;5.592;2023-04-15T12:36:02;5.22;;;2.40;;
23988;SDS011;12202;52.136;5.592;2023-04-15T12:38:29;10.85;;;2.80;;
23988;SDS011;12202;52.136;5.592;2023-04-15T12:40:55;3.95;;;2.55;;
23988;SDS011;12202;52.136;5.592;2023-04-15T12:43:21;3.97;;;2.42;;
23988;SDS011;12202;52.136;5.592;2023-04-15T12:45:47;6.53;;;2.05;;
23988;SDS011;12202;52.136;5.592;2023-04-15T12:48:13;6.53;;;2.78;;
23988;SDS011;12202;52.136;5.592;2023-04-15T12:50:40;6.20;;;2.70;;
23988;SDS011;12202;52.136;5.592;2023-04-15T12:53:06;7.82;;;2.88;;
23988;SDS011;12202;52.136;5.592;2023-04-15T12:55:31;9.15;;;2.72;;
23988;SDS011;12202;52.136;5.592;2023-04-15T12:57:57;2.92;;;2.17;;
23988;SDS011;12202;52.136;5.592;2023-04-15T13:00:23;4.68;;;2.20;;
23988;SDS011;12202;52.136;5.592;2023-04-15T13:02:49;5.60;;;2.88;;
23988;SDS011;12202;52.136;5.592;2023-04-15T13:05:15;9.48;;;4.00;;
23988;SDS011;12202;52.136;5.592;2023-04-15T13:07:41;6.72;;;3.08;;
23988;SDS011;12202;52.136;5.592;2023-04-15T13:10:07;5.65;;;2.58;;
23988;SDS011;12202;52.136;5.592;2023-04-15T13:12:34;7.03;;;2.55;;
23988;SDS011;12202;52.136;5.592;2023-04-15T13:15:03;7.38;;;2.47;;
23988;SDS011;12202;52.136;5.592;2023-04-15T13:17:29;4.85;;;2.50;;
23988;SDS011;12202;52.136;5.592;2023-04-15T13:19:55;5.97;;;2.08;;
23988;SDS011;12202;52.136;5.592;2023-04-15T13:22:22;4.35;;;2.28;;
23988;SDS011;12202;52.136;5.592;2023-04-15T13:24:48;3.08;;;2.10;;
23988;SDS011;12202;52.136;5.592;2023-04-15T13:27:15;3.97;;;2.20;;
23988;SDS011;12202;52.136;5.592;2023-04-15T13:29:41;4.93;;;2.58;;
23988;SDS011;12202;52.136;5.592;2023-04-15T13:32:07;5.63;;;2.13;;
23988;SDS011;12202;52.136;5.592;2023-04-15T13:34:33;5.10;;;2.97;;
23988;SDS011;12202;52.136;5.592;2023-04-15T13:37:04;3.75;;;2.47;;
23988;SDS011;12202;52.136;5.592;2023-04-15T13:39:30;4.22;;;2.72;;
23988;SDS011;12202;52.136;5.592;2023-04-15T13:41:56;5.15;;;1.95;;
23988;SDS011;12202;52.136;5.592;2023-04-15T13:44:22;6.13;;;2.35;;
23988;SDS011;12202;52.136;5.592;2023-04-15T13:46:48;3.80;;;1.80;;
23988;SDS011;12202;52.136;5.592;2023-04-15T13:49:14;5.07;;;2.00;;
23988;SDS011;12202;52.136;5.592;2023-04-15T13:51:40;4.20;;;1.98;;
23988;SDS011;12202;52.136;5.592;2023-04-15T13:54:06;7.65;;;2.50;;
23988;SDS011;12202;52.136;5.592;2023-04-15T13:56:33;9.35;;;2.42;;
23988;SDS011;12202;52.136;5.592;2023-04-15T13:58:59;5.07;;;2.38;;
23988;SDS011;12202;52.136;5.592;2023-04-15T14:01:26;3.28;;;2.17;;
23988;SDS011;12202;52.136;5.592;2023-04-15T14:03:52;4.45;;;2.13;;
23988;SDS011;12202;52.136;5.592;2023-04-15T14:06:18;5.95;;;2.58;;
23988;SDS011;12202;52.136;5.592;2023-04-15T14:08:44;8.60;;;3.35;;
23988;SDS011;12202;52.136;5.592;2023-04-15T14:11:10;6.13;;;2.50;;
23988;SDS011;12202;52.136;5.592;2023-04-15T14:13:36;7.13;;;3.05;;
23988;SDS011;12202;52.136;5.592;2023-04-15T14:16:02;4.85;;;2.70;;
23988;SDS011;12202;52.136;5.592;2023-04-15T14:18:28;6.03;;;3.33;;
23988;SDS011;12202;52.136;5.592;2023-04-15T14:20:54;7.50;;;3.10;;
23988;SDS011;12202;52.136;5.592;2023-04-15T14:23:21;5.75;;;2.95;;
23988;SDS011;12202;52.136;5.592;2023-04-15T14:25:47;9.30;;;3.15;;
23988;SDS011;12202;52.136;5.592;2023-04-15T14:28:13;8.20;;;3.30;;
23988;SDS011;12202;52.136;5.592;2023-04-15T14:30:39;4.70;;;3.13;;
23988;SDS011;12202;52.136;5.592;2023-04-15T14:33:05;9.35;;;3.78;;
23988;SDS011;12202;52.136;5.592;2023-04-15T14:35:31;8.07;;;3.53;;
23988;SDS011;12202;52.136;5.592;2023-04-15T14:37:57;6.85;;;3.85;;
23988;SDS011;12202;52.136;5.592;2023-04-15T14:40:23;13.45;;;3.97;;
23988;SDS011;12202;52.136;5.592;2023-04-15T14:42:49;12.70;;;5.03;;
23988;SDS011;12202;52.136;5.592;2023-04-15T14:45:15;7.78;;;3.85;;
23988;SDS011;12202;52.136;5.592;2023-04-15T14:47:41;10.50;;;4.10;;